< < Back
Terminal Aerodrome Forecast


Current Version              Previous Versions:   1  2  3  4  5  6  7  8  9  

Terminal Aerodrome Forecast

332
FTUS44 KBMX 272323
TAFMGM
TAF
KMGM 272323Z 2800/2824 31010G18KT P6SM SCT060
     FM280600 32006KT P6SM FEW080=

Latest METAR

083
SAUS80 KWBC 280000 RRA
MTRMGM
METAR KMGM 272353Z 31017G25KT 10SM OVC090 13/00 A3000 RMK AO2 SLP157
T01330000 10178 20133 53028


USA.gov is the U.S. government's official web portal to all federal, state and local government web resources and services.